LICA/SUF METAR and TAF weather

Enter ICAO airport designator
Station Type Date Time Source
LICA METAR 2022/11/30 11:20 UTC NOAA

LICA 301120Z AUTO 28016KT 9999 -DZRA OVC050/// 12/11 Q1006


Station Type Date Time Source
LICA Decoded METAR 2022/11/30 11:20 UTC NOAA

Lamezia Terme, Italy (LICA) 38-54N 016-15E
Nov 30, 2022 - 06:20 AM EST / 2022.11.30 1120 UTC
Wind: from the W (280 degrees) at 18 MPH (16 KT):0
Visibility: greater than 7 mile(s):0
Sky conditions: overcast
Weather: light drizzle, rain
Temperature: 53 F (12 C)
Dew Point: 51 F (11 C)
Relative Humidity: 93%
Pressure (altimeter): 29.71 in. Hg (1006 hPa)
ob: LICA 301120Z AUTO 28016KT 9999 -DZRA OVC050/// 12/11 Q1006
cycle: 11

Station Type Date Time Source
LICA TAF 2022/11/30 12:21 UTC NOAA

TAF LICA 301100Z 3012/0112 28013KT 9999 SCT050
TEMPO 3012/3018 RA
BECMG 3017/3019 VRB05KT
TEMPO 0106/0110 RA

Example: see airport list